createdAt,value
2023-04-07T00:00:24.597Z,9.60
2023-04-07T00:02:51.994Z,9.88
2023-04-07T00:05:18.988Z,10.60
2023-04-07T00:07:55.956Z,10.23
2023-04-07T00:10:23.925Z,10.98
2023-04-07T00:12:50.641Z,9.80
2023-04-07T00:15:17.358Z,9.82
2023-04-07T00:17:44.081Z,10.73
2023-04-07T00:20:11.391Z,10.20
2023-04-07T00:22:38.083Z,10.60
2023-04-07T00:25:05.157Z,10.82
2023-04-07T00:27:32.196Z,11.30
2023-04-07T00:29:58.909Z,10.73
2023-04-07T00:32:25.707Z,12.07
2023-04-07T00:34:52.432Z,12.48
2023-04-07T00:37:19.608Z,11.50
2023-04-07T00:39:46.934Z,12.50
2023-04-07T00:42:13.999Z,11.15
2023-04-07T00:44:41.043Z,10.88
2023-04-07T00:47:07.798Z,10.85
2023-04-07T00:49:37.584Z,12.82
2023-04-07T00:52:06.038Z,11.07
2023-04-07T00:54:32.942Z,9.85
2023-04-07T00:56:59.631Z,10.77
2023-04-07T00:59:26.432Z,11.20
2023-04-07T01:01:56.852Z,11.48
2023-04-07T01:04:44.214Z,12.20
2023-04-07T01:07:46.696Z,12.98
2023-04-07T01:10:19.700Z,12.05
2023-04-07T01:13:02.918Z,12.30
2023-04-07T01:15:32.101Z,12.73
2023-04-07T01:18:11.337Z,12.40
2023-04-07T01:20:40.162Z,11.38
2023-04-07T01:23:08.696Z,11.82
2023-04-07T01:25:59.578Z,12.10
2023-04-07T01:28:44.195Z,12.43
2023-04-07T01:31:13.159Z,11.95
2023-04-07T01:33:44.156Z,12.48
2023-04-07T01:36:12.483Z,14.43
2023-04-07T01:38:40.194Z,13.25
2023-04-07T01:41:10.194Z,11.70
2023-04-07T01:43:39.320Z,13.43
2023-04-07T01:46:06.222Z,12.73
2023-04-07T01:48:34.838Z,13.10
2023-04-07T01:51:01.936Z,12.05
2023-04-07T01:53:29.326Z,12.02
2023-04-07T01:55:56.250Z,13.18
2023-04-07T01:58:22.997Z,12.48
2023-04-07T02:00:51.045Z,12.75
2023-04-07T02:03:24.547Z,12.20
2023-04-07T02:05:56.689Z,10.40
2023-04-07T02:08:27.785Z,11.50
2023-04-07T02:10:56.794Z,12.18
2023-04-07T02:13:24.290Z,11.93
2023-04-07T02:15:53.655Z,11.20
2023-04-07T02:18:21.021Z,11.85
2023-04-07T02:20:48.878Z,12.70
2023-04-07T02:23:16.497Z,12.10
2023-04-07T02:25:43.450Z,11.77
2023-04-07T02:28:10.215Z,12.75
2023-04-07T02:30:36.950Z,12.23
2023-04-07T02:33:03.686Z,12.30
2023-04-07T02:35:30.461Z,13.02
2023-04-07T02:37:57.232Z,12.70
2023-04-07T02:40:23.906Z,10.85
2023-04-07T02:42:50.722Z,13.07
2023-04-07T02:45:17.453Z,12.35
2023-04-07T02:47:44.337Z,13.23
2023-04-07T02:50:11.496Z,14.00
2023-04-07T02:52:38.213Z,14.63
2023-04-07T02:55:05.405Z,14.43
2023-04-07T02:57:32.103Z,14.55
2023-04-07T02:59:58.819Z,14.27
2023-04-07T03:02:25.799Z,14.48
2023-04-07T03:04:53.420Z,13.88
2023-04-07T03:07:20.503Z,13.18
2023-04-07T03:09:47.326Z,14.35
2023-04-07T03:12:14.081Z,15.10
2023-04-07T03:14:40.739Z,15.90
2023-04-07T03:17:07.515Z,15.88
2023-04-07T03:19:34.320Z,16.98
2023-04-07T03:22:01.261Z,14.32
2023-04-07T03:24:27.919Z,15.43
2023-04-07T03:26:54.605Z,15.60
2023-04-07T03:29:21.275Z,18.35
2023-04-07T03:31:48.086Z,17.40
2023-04-07T03:34:14.744Z,18.25
2023-04-07T03:36:41.657Z,16.55
2023-04-07T03:39:08.353Z,17.38
2023-04-07T03:41:35.009Z,17.60
2023-04-07T03:44:01.724Z,18.40
2023-04-07T03:46:28.607Z,16.25
2023-04-07T03:48:55.718Z,17.48
2023-04-07T03:51:22.667Z,17.33
2023-04-07T03:53:49.338Z,17.65
2023-04-07T03:56:16.398Z,17.67
2023-04-07T03:58:43.187Z,16.17
2023-04-07T04:01:09.963Z,18.95
2023-04-07T04:03:36.871Z,18.80
2023-04-07T04:06:03.967Z,20.27
2023-04-07T04:08:30.882Z,18.95
2023-04-07T04:10:57.572Z,18.67
2023-04-07T04:13:24.282Z,17.58
2023-04-07T04:15:51.058Z,19.92
2023-04-07T04:18:17.718Z,18.42
2023-04-07T04:20:44.527Z,18.50
2023-04-07T04:23:11.350Z,16.75
2023-04-07T04:25:39.901Z,18.17
2023-04-07T04:28:07.072Z,17.75
2023-04-07T04:30:33.789Z,17.95
2023-04-07T04:33:00.633Z,17.98
2023-04-07T04:35:27.474Z,19.15
2023-04-07T04:37:54.449Z,18.95
2023-04-07T04:40:21.398Z,17.67
2023-04-07T04:42:48.118Z,18.08
2023-04-07T04:45:14.817Z,19.48
2023-04-07T04:47:43.364Z,19.45
2023-04-07T04:50:11.019Z,18.67
2023-04-07T04:52:38.401Z,19.08
2023-04-07T04:55:05.673Z,20.55
2023-04-07T04:57:32.431Z,20.20
2023-04-07T04:59:59.113Z,19.30
2023-04-07T05:02:26.858Z,18.30
2023-04-07T05:04:53.702Z,18.08
2023-04-07T05:07:20.560Z,20.42
2023-04-07T05:09:47.210Z,19.33
2023-04-07T05:12:13.919Z,19.35
2023-04-07T05:14:40.973Z,20.38
2023-04-07T05:17:07.733Z,18.95
2023-04-07T05:19:34.644Z,18.70
2023-04-07T05:22:01.452Z,19.92
2023-04-07T05:24:29.457Z,20.13
2023-04-07T05:26:57.322Z,18.95
2023-04-07T05:29:24.139Z,20.90
2023-04-07T05:31:51.039Z,20.70
2023-04-07T05:34:17.732Z,20.85
2023-04-07T05:36:44.502Z,21.40
2023-04-07T05:39:11.403Z,21.98
2023-04-07T05:41:38.298Z,22.33
2023-04-07T05:44:06.662Z,22.30
2023-04-07T05:46:33.344Z,22.17
2023-04-07T05:49:07.148Z,22.75
2023-04-07T05:51:46.800Z,21.63
2023-04-07T05:54:15.018Z,23.15
2023-04-07T05:56:41.676Z,21.67
2023-04-07T05:59:08.415Z,22.75
2023-04-07T06:01:35.073Z,22.30
2023-04-07T06:04:03.646Z,23.60
2023-04-07T06:06:30.404Z,23.02
2023-04-07T06:08:57.101Z,23.58
2023-04-07T06:11:23.862Z,22.95
2023-04-07T06:13:51.149Z,21.45
2023-04-07T06:16:19.476Z,21.48
2023-04-07T06:18:46.701Z,22.55
2023-04-07T06:21:13.395Z,22.13
2023-04-07T06:23:40.112Z,22.83
2023-04-07T06:26:09.267Z,22.40
2023-04-07T06:28:36.106Z,20.48
2023-04-07T06:31:02.826Z,22.55
2023-04-07T06:33:29.563Z,23.42
2023-04-07T06:35:56.698Z,22.55
2023-04-07T06:38:25.675Z,19.85
2023-04-07T06:40:52.487Z,18.52
2023-04-07T06:43:19.200Z,21.65
2023-04-07T06:45:46.099Z,20.48
2023-04-07T06:48:12.827Z,18.23
2023-04-07T06:50:39.573Z,18.35
2023-04-07T06:53:06.330Z,17.60
2023-04-07T06:55:33.019Z,16.95
2023-04-07T06:57:59.722Z,18.13
2023-04-07T07:00:29.300Z,17.35
2023-04-07T07:02:57.268Z,19.17
2023-04-07T07:05:24.353Z,17.70
2023-04-07T07:07:51.986Z,16.10
2023-04-07T07:10:20.610Z,16.85
2023-04-07T07:12:47.287Z,15.10
2023-04-07T07:15:14.081Z,16.92
2023-04-07T07:17:41.025Z,15.10
2023-04-07T07:20:08.415Z,14.38
2023-04-07T07:22:35.090Z,16.60
2023-04-07T07:25:01.919Z,15.82
2023-04-07T07:27:28.637Z,15.13
2023-04-07T07:29:56.677Z,15.48
2023-04-07T07:32:23.404Z,13.38
2023-04-07T07:34:50.270Z,13.75
2023-04-07T07:37:17.613Z,13.50
2023-04-07T07:39:44.487Z,13.93
2023-04-07T07:42:11.736Z,14.10
2023-04-07T07:44:38.589Z,13.98
2023-04-07T07:47:05.676Z,13.05
2023-04-07T07:49:32.380Z,13.30
2023-04-07T07:51:59.939Z,11.43
2023-04-07T07:54:26.718Z,11.35
2023-04-07T07:56:53.466Z,12.10
2023-04-07T07:59:20.205Z,13.13
2023-04-07T08:01:46.929Z,13.52
2023-04-07T08:04:13.928Z,11.85
2023-04-07T08:06:41.028Z,11.13
2023-04-07T08:09:07.795Z,13.15
2023-04-07T08:11:34.458Z,13.07
2023-04-07T08:14:01.179Z,12.13
2023-04-07T08:16:27.886Z,7.70
2023-04-07T08:18:54.574Z,7.55
2023-04-07T08:21:21.305Z,10.73
2023-04-07T08:23:48.471Z,11.85
2023-04-07T08:26:15.524Z,10.55
2023-04-07T08:28:43.057Z,9.68
2023-04-07T08:31:09.789Z,9.43
2023-04-07T08:33:36.575Z,9.50
2023-04-07T08:36:03.545Z,9.90
2023-04-07T08:38:31.372Z,9.63
2023-04-07T08:41:42.894Z,8.93
2023-04-07T08:44:10.740Z,9.00
2023-04-07T08:46:41.364Z,9.38
2023-04-07T08:49:14.297Z,7.63
2023-04-07T08:51:48.521Z,9.52
2023-04-07T08:54:19.064Z,9.32
2023-04-07T08:56:46.234Z,7.82
2023-04-07T08:59:14.914Z,7.50
2023-04-07T09:01:41.966Z,6.90
2023-04-07T09:04:10.594Z,7.15
2023-04-07T09:06:38.275Z,7.15
2023-04-07T09:09:08.655Z,6.20
2023-04-07T09:11:37.413Z,4.90
2023-04-07T09:14:04.332Z,6.53
2023-04-07T09:16:31.460Z,5.70
2023-04-07T09:18:58.852Z,4.93
2023-04-07T09:21:25.782Z,5.68
2023-04-07T09:23:52.450Z,5.70
2023-04-07T09:26:25.059Z,4.75
2023-04-07T09:28:57.894Z,6.32
2023-04-07T09:31:44.669Z,5.90
2023-04-07T09:34:34.201Z,5.97
2023-04-07T09:37:01.528Z,5.68
2023-04-07T09:39:28.908Z,4.15
2023-04-07T09:41:55.887Z,6.35
2023-04-07T09:44:23.300Z,6.57
2023-04-07T09:46:52.256Z,7.43
2023-04-07T09:49:20.457Z,7.70
2023-04-07T09:52:13.363Z,7.97
2023-04-07T09:54:41.972Z,8.10
2023-04-07T09:57:10.895Z,7.45
2023-04-07T09:59:39.570Z,6.80
2023-04-07T10:02:07.017Z,6.70
2023-04-07T10:04:34.360Z,7.93
2023-04-07T10:07:01.286Z,7.55
2023-04-07T10:09:28.962Z,7.82
2023-04-07T10:11:58.335Z,7.20
2023-04-07T10:14:37.177Z,8.00
2023-04-07T10:17:05.453Z,8.95
2023-04-07T10:19:35.855Z,7.82
2023-04-07T10:22:05.594Z,6.35
2023-04-07T10:24:52.937Z,6.65
2023-04-07T10:27:24.496Z,5.00
2023-04-07T10:29:53.196Z,6.88
2023-04-07T10:32:20.165Z,7.88
2023-04-07T10:34:56.013Z,6.70
2023-04-07T10:37:24.092Z,7.07
2023-04-07T10:39:52.555Z,6.32
2023-04-07T10:42:37.662Z,5.45
2023-04-07T10:45:05.605Z,6.53
2023-04-07T10:47:32.421Z,7.28
2023-04-07T10:50:20.406Z,6.97
2023-04-07T10:52:48.734Z,6.90
2023-04-07T10:55:28.991Z,7.47
2023-04-07T10:58:14.473Z,7.20
2023-04-07T11:00:41.510Z,6.60
2023-04-07T11:03:14.872Z,8.25
2023-04-07T11:05:42.491Z,7.50
2023-04-07T11:08:09.377Z,7.20
2023-04-07T11:10:36.410Z,6.65
2023-04-07T11:13:04.734Z,7.57
2023-04-07T11:15:31.886Z,7.50
2023-04-07T11:18:07.720Z,6.90
2023-04-07T11:20:42.254Z,5.28
2023-04-07T11:23:10.389Z,7.07
2023-04-07T11:25:37.340Z,5.05
2023-04-07T11:28:04.540Z,7.88
2023-04-07T11:30:31.288Z,7.45
2023-04-07T11:32:58.430Z,7.65
2023-04-07T11:35:25.831Z,8.35
2023-04-07T11:37:58.996Z,8.13
2023-04-07T11:40:37.352Z,7.57
2023-04-07T11:43:25.869Z,9.05
2023-04-07T11:46:17.114Z,8.65
2023-04-07T11:48:45.645Z,7.47
2023-04-07T11:51:20.248Z,9.40
2023-04-07T11:53:48.227Z,8.38
2023-04-07T11:56:17.272Z,8.75
2023-04-07T11:58:51.704Z,7.68
2023-04-07T12:01:18.503Z,9.15
2023-04-07T12:04:03.100Z,9.30
2023-04-07T12:06:35.335Z,8.13
2023-04-07T12:09:03.244Z,9.57
2023-04-07T12:11:30.420Z,8.70
2023-04-07T12:13:57.435Z,8.57
2023-04-07T12:16:25.046Z,8.73
2023-04-07T12:18:52.337Z,9.38
2023-04-07T12:21:20.054Z,7.38
2023-04-07T12:23:47.839Z,7.60
2023-04-07T12:26:14.673Z,7.65
2023-04-07T12:28:41.380Z,9.50
2023-04-07T12:31:08.304Z,8.75
2023-04-07T12:33:35.084Z,8.85
2023-04-07T12:36:01.835Z,9.65
2023-04-07T12:38:28.957Z,9.70
2023-04-07T12:40:55.723Z,10.80
2023-04-07T12:43:22.369Z,10.18
2023-04-07T12:45:49.050Z,9.90
2023-04-07T12:48:16.867Z,7.28
2023-04-07T12:50:43.628Z,9.57
2023-04-07T12:53:10.363Z,9.52
2023-04-07T12:55:37.643Z,10.05
2023-04-07T12:58:04.871Z,7.97
2023-04-07T13:00:31.784Z,9.98
2023-04-07T13:02:58.927Z,9.75
2023-04-07T13:05:25.744Z,8.07
2023-04-07T13:07:52.431Z,9.93
2023-04-07T13:10:19.183Z,9.82
2023-04-07T13:12:45.898Z,9.52
2023-04-07T13:15:12.749Z,9.23
2023-04-07T13:17:39.420Z,7.85
2023-04-07T13:20:07.441Z,7.80
2023-04-07T13:22:35.919Z,5.60
2023-04-07T13:25:02.979Z,9.20
2023-04-07T13:27:29.700Z,9.38
2023-04-07T13:29:56.372Z,8.98
2023-04-07T13:32:23.752Z,10.05
2023-04-07T13:34:50.653Z,9.45
2023-04-07T13:37:19.209Z,9.75
2023-04-07T13:39:46.133Z,9.18
2023-04-07T13:42:16.948Z,9.15
2023-04-07T13:44:48.245Z,9.57
2023-04-07T13:47:19.672Z,9.82
2023-04-07T13:49:47.803Z,8.75
2023-04-07T13:52:14.966Z,7.43
2023-04-07T13:54:42.246Z,8.85
2023-04-07T13:57:09.092Z,7.72
2023-04-07T13:59:35.919Z,8.55
2023-04-07T14:02:02.724Z,10.27
2023-04-07T14:04:29.489Z,9.63
2023-04-07T14:06:56.353Z,10.68
2023-04-07T14:09:23.063Z,8.48
2023-04-07T14:11:49.717Z,8.63
2023-04-07T14:14:16.459Z,7.95
2023-04-07T14:16:43.719Z,9.00
2023-04-07T14:19:10.448Z,7.50
2023-04-07T14:21:37.126Z,8.32
2023-04-07T14:24:04.121Z,6.80
2023-04-07T14:26:30.794Z,9.20
2023-04-07T14:28:57.462Z,9.25
2023-04-07T14:31:24.262Z,8.98
2023-04-07T14:33:51.247Z,8.48
2023-04-07T14:36:18.333Z,8.32
2023-04-07T14:38:45.016Z,8.35
2023-04-07T14:41:11.768Z,7.95
2023-04-07T14:43:38.735Z,8.30
2023-04-07T14:46:05.984Z,8.82
2023-04-07T14:48:32.876Z,7.97
2023-04-07T14:51:09.267Z,9.15
2023-04-07T14:53:36.929Z,7.50
2023-04-07T14:56:07.217Z,8.05
2023-04-07T14:58:34.573Z,8.15
2023-04-07T15:01:01.777Z,7.80
2023-04-07T15:03:29.784Z,8.57
2023-04-07T15:05:56.750Z,7.97
2023-04-07T15:08:23.491Z,7.85
2023-04-07T15:10:50.171Z,7.35
2023-04-07T15:13:16.881Z,7.93
2023-04-07T15:15:43.601Z,7.32
2023-04-07T15:18:10.445Z,7.72
2023-04-07T15:20:37.106Z,8.20
2023-04-07T15:23:03.858Z,8.13
2023-04-07T15:25:30.539Z,7.72
2023-04-07T15:27:57.234Z,7.30
2023-04-07T15:30:23.976Z,7.43
2023-04-07T15:32:58.234Z,10.57
2023-04-07T15:35:25.110Z,7.00
2023-04-07T15:37:51.879Z,7.10
2023-04-07T15:40:18.719Z,7.22
2023-04-07T15:42:45.506Z,8.25
2023-04-07T15:45:12.466Z,7.03
2023-04-07T15:47:39.319Z,6.63
2023-04-07T15:50:07.026Z,7.28
2023-04-07T15:52:33.692Z,7.10
2023-04-07T15:55:00.393Z,6.72
2023-04-07T15:57:27.066Z,7.22
2023-04-07T15:59:53.714Z,6.65
2023-04-07T16:02:20.700Z,6.88
2023-04-07T16:04:48.319Z,7.10
2023-04-07T16:07:14.992Z,7.22
2023-04-07T16:09:41.645Z,7.50
2023-04-07T16:12:08.320Z,6.45
2023-04-07T16:14:35.131Z,6.78
2023-04-07T16:17:02.094Z,6.55
2023-04-07T16:19:29.004Z,6.70
2023-04-07T16:21:55.750Z,6.63
2023-04-07T16:24:22.745Z,6.18
2023-04-07T16:26:51.603Z,6.30
2023-04-07T16:29:22.741Z,7.13
2023-04-07T16:31:49.525Z,6.53
2023-04-07T16:34:16.367Z,6.75
2023-04-07T16:36:43.147Z,6.50
2023-04-07T16:39:10.008Z,6.57
2023-04-07T16:41:36.738Z,6.18
2023-04-07T16:44:03.755Z,6.72
2023-04-07T16:46:30.778Z,7.55
2023-04-07T16:48:57.615Z,6.90
2023-04-07T16:51:25.020Z,6.78
2023-04-07T16:53:51.685Z,6.88
2023-04-07T16:56:21.710Z,6.18
2023-04-07T16:58:49.217Z,6.15
2023-04-07T17:01:16.198Z,6.50
2023-04-07T17:03:43.300Z,5.97
2023-04-07T17:06:10.110Z,5.93
2023-04-07T17:08:38.493Z,5.55
2023-04-07T17:11:09.436Z,5.60
2023-04-07T17:13:36.777Z,6.30
2023-04-07T17:16:04.466Z,5.75
2023-04-07T17:18:32.974Z,4.85
2023-04-07T17:20:59.675Z,6.60
2023-04-07T17:23:28.495Z,6.30
2023-04-07T17:25:55.372Z,5.93
2023-04-07T17:28:22.077Z,6.60
2023-04-07T17:30:48.890Z,5.90
2023-04-07T17:33:15.603Z,5.35
2023-04-07T17:35:42.455Z,5.53
2023-04-07T17:38:09.295Z,6.28
2023-04-07T17:40:36.018Z,6.03
2023-04-07T17:43:02.906Z,5.75
2023-04-07T17:45:29.638Z,6.13
2023-04-07T17:47:56.490Z,5.63
2023-04-07T17:50:23.705Z,5.72
2023-04-07T17:52:51.669Z,5.68
2023-04-07T17:55:18.753Z,5.75
2023-04-07T17:57:45.930Z,5.68
2023-04-07T18:00:12.967Z,5.68
2023-04-07T18:02:40.764Z,5.20
2023-04-07T18:05:07.941Z,5.55
2023-04-07T18:07:34.593Z,5.18
2023-04-07T18:10:01.617Z,6.32
2023-04-07T18:12:28.313Z,5.78
2023-04-07T18:14:55.008Z,5.18
2023-04-07T18:17:21.683Z,5.57
2023-04-07T18:19:48.793Z,5.32
2023-04-07T18:22:16.833Z,6.00
2023-04-07T18:24:43.550Z,5.30
2023-04-07T18:27:10.398Z,5.43
2023-04-07T18:29:37.148Z,5.90
2023-04-07T18:32:03.848Z,5.28
2023-04-07T18:34:30.767Z,5.32
2023-04-07T18:36:57.491Z,5.60
2023-04-07T18:39:28.113Z,5.32
2023-04-07T18:41:57.614Z,5.63
2023-04-07T18:44:25.207Z,6.03
2023-04-07T18:46:52.059Z,5.97
2023-04-07T18:49:18.854Z,6.47
2023-04-07T18:51:46.995Z,14.05
2023-04-07T18:54:14.110Z,5.22
2023-04-07T18:56:40.857Z,6.13
2023-04-07T18:59:08.339Z,6.20
2023-04-07T19:01:35.242Z,6.10
2023-04-07T19:04:02.188Z,5.60
2023-04-07T19:06:30.622Z,5.45
2023-04-07T19:08:57.985Z,6.07
2023-04-07T19:11:24.921Z,5.82
2023-04-07T19:13:53.502Z,5.90
2023-04-07T19:16:21.950Z,6.53
2023-04-07T19:18:48.688Z,6.57
2023-04-07T19:21:15.353Z,5.10
2023-04-07T19:23:42.467Z,5.30
2023-04-07T19:26:15.591Z,5.07
2023-04-07T19:28:42.582Z,5.68
2023-04-07T19:31:09.649Z,5.85
2023-04-07T19:33:37.071Z,6.55
2023-04-07T19:36:04.690Z,6.07
2023-04-07T19:38:31.901Z,5.78
2023-04-07T19:40:58.580Z,6.22
2023-04-07T19:43:25.462Z,6.50
2023-04-07T19:45:52.347Z,6.88
2023-04-07T19:48:19.335Z,5.55
2023-04-07T19:50:50.106Z,5.65
2023-04-07T19:53:17.687Z,5.32
2023-04-07T19:55:48.751Z,5.45
2023-04-07T19:58:21.210Z,4.97
2023-04-07T20:00:50.960Z,4.72
2023-04-07T20:03:17.909Z,4.78
2023-04-07T20:05:44.842Z,5.20
2023-04-07T20:08:11.829Z,5.35
2023-04-07T20:10:38.542Z,5.00
2023-04-07T20:13:06.383Z,4.20
2023-04-07T20:15:33.213Z,4.82
2023-04-07T20:18:00.376Z,5.00
2023-04-07T20:20:27.144Z,4.60
2023-04-07T20:22:53.884Z,4.65
2023-04-07T20:25:21.008Z,4.50
2023-04-07T20:27:50.127Z,4.75
2023-04-07T20:30:17.056Z,3.88
2023-04-07T20:32:45.136Z,4.53
2023-04-07T20:35:12.177Z,4.70
2023-04-07T20:37:38.866Z,4.70
2023-04-07T20:40:06.944Z,4.40
2023-04-07T20:42:33.643Z,4.43
2023-04-07T20:45:03.983Z,4.45
2023-04-07T20:47:31.527Z,4.60
2023-04-07T20:49:58.922Z,4.20
2023-04-07T20:52:27.468Z,4.35
2023-04-07T20:54:54.178Z,4.35
2023-04-07T20:57:20.829Z,4.43
2023-04-07T20:59:47.492Z,4.60
2023-04-07T21:02:14.371Z,3.78
2023-04-07T21:04:41.251Z,4.45
2023-04-07T21:07:08.016Z,4.72
2023-04-07T21:09:34.753Z,4.60
2023-04-07T21:12:03.636Z,4.60
2023-04-07T21:14:32.141Z,4.63
2023-04-07T21:16:59.621Z,4.70
2023-04-07T21:19:26.322Z,4.38
2023-04-07T21:21:52.989Z,4.28
2023-04-07T21:24:22.326Z,4.05
2023-04-07T21:26:49.205Z,5.03
2023-04-07T21:29:16.138Z,5.10
2023-04-07T21:31:42.990Z,4.50
2023-04-07T21:34:09.736Z,4.68
2023-04-07T21:36:36.405Z,4.60
2023-04-07T21:39:03.092Z,4.55
2023-04-07T21:41:29.824Z,5.00
2023-04-07T21:43:56.676Z,4.60
2023-04-07T21:46:23.594Z,4.88
2023-04-07T21:48:50.562Z,4.57
2023-04-07T21:51:17.559Z,4.40
2023-04-07T21:53:44.464Z,4.95
2023-04-07T21:56:13.284Z,5.05
2023-04-07T21:58:42.002Z,5.32
2023-04-07T22:01:08.767Z,5.20
2023-04-07T22:03:35.745Z,4.78
2023-04-07T22:06:02.697Z,5.88
2023-04-07T22:08:29.368Z,5.35
2023-04-07T22:10:56.256Z,5.85
2023-04-07T22:13:22.904Z,5.95
2023-04-07T22:15:50.429Z,6.07
2023-04-07T22:18:17.182Z,5.97
2023-04-07T22:20:43.918Z,5.18
2023-04-07T22:23:10.631Z,6.13
2023-04-07T22:25:37.360Z,5.95
2023-04-07T22:28:04.113Z,5.80
2023-04-07T22:30:30.966Z,5.57
2023-04-07T22:32:57.773Z,6.05
2023-04-07T22:35:24.539Z,5.60
2023-04-07T22:37:51.321Z,5.47
2023-04-07T22:40:18.183Z,6.32
2023-04-07T22:42:44.935Z,5.57
2023-04-07T22:45:11.586Z,6.13
2023-04-07T22:47:39.341Z,6.60
2023-04-07T22:50:06.838Z,6.88
2023-04-07T22:52:33.568Z,5.80
2023-04-07T22:55:00.248Z,6.35
2023-04-07T22:57:26.979Z,6.63
2023-04-07T22:59:53.985Z,6.93
2023-04-07T23:02:20.981Z,6.40
2023-04-07T23:04:48.871Z,6.82
2023-04-07T23:07:16.261Z,7.05
2023-04-07T23:09:42.984Z,7.10
2023-04-07T23:12:09.622Z,7.30
2023-04-07T23:14:36.352Z,7.40
2023-04-07T23:17:03.231Z,7.28
2023-04-07T23:19:29.983Z,6.70
2023-04-07T23:21:56.612Z,7.45
2023-04-07T23:24:23.328Z,8.32
2023-04-07T23:26:49.965Z,6.63
2023-04-07T23:29:17.076Z,7.15
2023-04-07T23:31:43.822Z,8.07
2023-04-07T23:34:10.818Z,7.78
2023-04-07T23:36:39.737Z,7.38
2023-04-07T23:39:06.468Z,7.32
2023-04-07T23:41:33.395Z,7.68
2023-04-07T23:44:00.143Z,7.78
2023-04-07T23:46:26.880Z,7.70
2023-04-07T23:48:53.970Z,7.97
2023-04-07T23:51:20.819Z,8.65
2023-04-07T23:53:47.519Z,8.02
2023-04-07T23:56:14.344Z,7.88
2023-04-07T23:58:41.042Z,8.30
